createdAt,value
2018-01-13T00:01:51.811Z,91.25
2018-01-13T00:04:19.214Z,91.41
2018-01-13T00:06:46.607Z,91.52
2018-01-13T00:09:14.014Z,91.84
2018-01-13T00:11:41.408Z,91.62
2018-01-13T00:14:08.803Z,91.29
2018-01-13T00:16:36.223Z,91.52
2018-01-13T00:19:03.633Z,91.54
2018-01-13T00:21:31.030Z,91.56
2018-01-13T00:23:58.446Z,91.58
2018-01-13T00:26:25.837Z,91.65
2018-01-13T00:28:53.242Z,91.70
2018-01-13T00:31:20.644Z,91.54
2018-01-13T00:33:48.063Z,91.09
2018-01-13T00:36:15.489Z,91.21
2018-01-13T00:38:42.894Z,91.45
2018-01-13T00:41:10.317Z,91.54
2018-01-13T00:43:37.714Z,91.63
2018-01-13T00:46:05.123Z,92.27
2018-01-13T00:48:32.514Z,92.20
2018-01-13T00:50:59.928Z,92.17
2018-01-13T00:53:27.319Z,92.14
2018-01-13T00:55:54.827Z,92.24
2018-01-13T00:58:22.217Z,91.94
2018-01-13T01:00:49.639Z,91.57
2018-01-13T01:03:17.039Z,91.83
2018-01-13T01:05:44.556Z,92.00
2018-01-13T01:08:11.952Z,92.00
2018-01-13T01:10:39.350Z,92.20
2018-01-13T01:13:06.791Z,92.11
2018-01-13T01:15:34.181Z,91.87
2018-01-13T01:18:01.570Z,92.02
2018-01-13T01:20:28.995Z,91.69
2018-01-13T01:22:56.379Z,91.50
2018-01-13T01:25:23.903Z,91.52
2018-01-13T01:27:51.294Z,91.57
2018-01-13T01:30:18.704Z,91.32
2018-01-13T01:32:46.106Z,91.28
2018-01-13T01:35:13.560Z,91.74
2018-01-13T01:37:40.907Z,91.80
2018-01-13T01:40:08.300Z,91.47
2018-01-13T01:42:35.722Z,91.27
2018-01-13T01:45:03.130Z,91.47
2018-01-13T01:47:30.591Z,92.16
2018-01-13T01:49:58.008Z,92.11
2018-01-13T01:52:25.415Z,92.03
2018-01-13T01:54:52.794Z,92.23
2018-01-13T01:57:20.306Z,92.39
2018-01-13T01:59:47.707Z,92.42
2018-01-13T02:02:15.106Z,92.63
2018-01-13T02:04:42.503Z,92.43
2018-01-13T02:07:09.909Z,92.53
2018-01-13T02:09:37.326Z,92.65
2018-01-13T02:12:04.736Z,92.21
2018-01-13T02:14:32.131Z,91.96
2018-01-13T02:16:59.537Z,91.83
2018-01-13T02:19:26.926Z,91.91
2018-01-13T02:21:54.330Z,92.21
2018-01-13T02:24:21.713Z,92.62
2018-01-13T02:26:49.141Z,92.77
2018-01-13T02:29:16.569Z,92.88
2018-01-13T02:31:43.970Z,92.78
2018-01-13T02:34:11.366Z,92.40
2018-01-13T02:36:38.760Z,92.50
2018-01-13T02:39:06.170Z,92.33
2018-01-13T02:41:33.566Z,91.96
2018-01-13T02:44:01.038Z,92.18
2018-01-13T02:46:28.449Z,92.47
2018-01-13T02:48:55.846Z,92.36
2018-01-13T02:51:23.237Z,92.34
2018-01-13T02:53:50.642Z,92.34
2018-01-13T02:56:18.058Z,91.83
2018-01-13T02:58:45.462Z,91.26
2018-01-13T03:01:12.871Z,91.49
2018-01-13T03:03:40.277Z,91.52
2018-01-13T03:06:07.669Z,91.78
2018-01-13T03:08:35.074Z,91.84
2018-01-13T03:11:02.471Z,91.82
2018-01-13T03:13:29.892Z,91.89
2018-01-13T03:15:57.282Z,91.80
2018-01-13T03:18:24.700Z,91.33
2018-01-13T03:20:52.113Z,90.71
2018-01-13T03:23:19.518Z,91.41
2018-01-13T03:25:46.922Z,91.88
2018-01-13T03:28:14.313Z,92.28
2018-01-13T03:30:41.723Z,92.26
2018-01-13T03:33:09.138Z,92.06
2018-01-13T03:35:36.566Z,91.95
2018-01-13T03:38:03.958Z,91.59
2018-01-13T03:40:31.422Z,91.18
2018-01-13T03:42:58.814Z,91.41
2018-01-13T03:45:26.226Z,91.71
2018-01-13T03:47:53.631Z,91.69
2018-01-13T03:50:21.053Z,91.79
2018-01-13T03:52:48.450Z,92.25
2018-01-13T03:55:15.854Z,92.21
2018-01-13T03:57:43.246Z,92.06
2018-01-13T04:00:10.650Z,92.17
2018-01-13T04:02:38.055Z,92.27
2018-01-13T04:05:05.479Z,92.61
2018-01-13T04:07:32.883Z,92.72
2018-01-13T04:10:00.398Z,93.03
2018-01-13T04:12:27.814Z,92.97
2018-01-13T04:14:55.212Z,92.77
2018-01-13T04:17:22.614Z,92.49
2018-01-13T04:19:50.042Z,92.53
2018-01-13T04:22:17.457Z,92.69
2018-01-13T04:24:44.849Z,92.58
2018-01-13T04:27:12.242Z,92.80
2018-01-13T04:29:39.652Z,92.50
2018-01-13T04:32:07.733Z,92.03
2018-01-13T04:34:35.170Z,91.94
2018-01-13T04:37:02.582Z,92.07
2018-01-13T04:39:30.015Z,91.97
2018-01-13T04:41:57.398Z,92.44
2018-01-13T04:44:24.889Z,92.32
2018-01-13T04:46:52.310Z,91.87
2018-01-13T04:49:19.715Z,91.51
2018-01-13T04:51:47.152Z,91.52
2018-01-13T04:54:14.541Z,91.81
2018-01-13T04:56:41.941Z,91.81
2018-01-13T04:59:09.343Z,92.04
2018-01-13T05:01:36.757Z,92.28
2018-01-13T05:04:04.163Z,91.87
2018-01-13T05:06:31.577Z,91.74
2018-01-13T05:08:58.962Z,91.66
2018-01-13T05:11:26.362Z,91.81
2018-01-13T05:13:53.759Z,92.12
2018-01-13T05:16:21.166Z,92.11
2018-01-13T05:18:48.570Z,92.16
2018-01-13T05:21:15.999Z,92.54
2018-01-13T05:23:43.390Z,93.01
2018-01-13T05:26:10.803Z,92.96
2018-01-13T05:28:38.195Z,92.70
2018-01-13T05:31:05.615Z,92.63
2018-01-13T05:33:33.064Z,92.59
2018-01-13T05:36:00.409Z,92.63
2018-01-13T05:38:27.824Z,92.40
2018-01-13T05:40:55.222Z,92.05
2018-01-13T05:43:22.625Z,92.27
2018-01-13T05:45:50.827Z,92.33
2018-01-13T05:48:18.232Z,92.06
2018-01-13T05:50:45.921Z,92.22
2018-01-13T05:53:13.343Z,92.05
2018-01-13T05:55:40.750Z,91.98
2018-01-13T05:58:08.154Z,92.18
2018-01-13T06:00:35.546Z,92.15
2018-01-13T06:03:02.950Z,91.79
2018-01-13T06:05:30.359Z,91.85
2018-01-13T06:07:57.742Z,91.88
2018-01-13T06:10:25.237Z,91.90
2018-01-13T06:12:52.642Z,91.85
2018-01-13T06:15:20.142Z,92.04
2018-01-13T06:17:47.598Z,91.94
2018-01-13T06:20:15.046Z,92.15
2018-01-13T06:22:42.451Z,92.40
2018-01-13T06:25:09.846Z,92.09
2018-01-13T06:27:37.250Z,92.41
2018-01-13T06:30:04.689Z,92.33
2018-01-13T06:32:32.098Z,92.04
2018-01-13T06:34:59.514Z,91.65
2018-01-13T06:37:26.910Z,91.26
2018-01-13T06:39:54.602Z,91.54
2018-01-13T06:42:21.990Z,91.96
2018-01-13T06:44:49.409Z,92.01
2018-01-13T06:47:16.797Z,91.87
2018-01-13T06:49:44.231Z,92.00
2018-01-13T06:52:11.650Z,92.32
2018-01-13T06:54:39.066Z,92.74
2018-01-13T06:57:06.462Z,92.87
2018-01-13T06:59:33.959Z,92.79
2018-01-13T07:02:01.437Z,92.93
2018-01-13T07:04:28.854Z,92.92
2018-01-13T07:06:56.251Z,92.77
2018-01-13T07:09:23.649Z,92.40
2018-01-13T07:11:51.043Z,92.18
2018-01-13T07:14:18.474Z,92.17
2018-01-13T07:16:45.854Z,92.15
2018-01-13T07:19:13.258Z,92.25
2018-01-13T07:21:40.786Z,91.91
2018-01-13T07:24:08.186Z,91.75
2018-01-13T07:26:35.635Z,91.62
2018-01-13T07:29:03.051Z,91.72
2018-01-13T07:31:30.463Z,91.73
2018-01-13T07:33:57.854Z,91.67
2018-01-13T07:36:25.250Z,91.39
2018-01-13T07:38:52.656Z,91.12
2018-01-13T07:41:20.054Z,90.81
2018-01-13T07:43:47.552Z,91.32
2018-01-13T07:46:14.934Z,91.47
2018-01-13T07:48:42.338Z,91.67
2018-01-13T07:51:09.746Z,91.91
2018-01-13T07:53:37.144Z,91.98
2018-01-13T07:56:06.295Z,92.28
2018-01-13T07:58:33.733Z,92.40
2018-01-13T08:01:01.138Z,92.59
2018-01-13T08:03:28.561Z,92.47
2018-01-13T08:05:55.944Z,92.23
2018-01-13T08:08:23.333Z,92.02
2018-01-13T08:10:50.731Z,92.20
2018-01-13T08:13:18.120Z,91.98
2018-01-13T08:15:45.525Z,91.70
2018-01-13T08:18:12.948Z,91.72
2018-01-13T08:20:40.355Z,91.90
2018-01-13T08:23:07.760Z,91.72
2018-01-13T08:25:35.160Z,91.39
2018-01-13T08:28:02.563Z,91.65
2018-01-13T08:30:29.966Z,91.69
2018-01-13T08:32:57.366Z,91.54
2018-01-13T08:35:24.850Z,91.58
2018-01-13T08:37:52.247Z,91.23
2018-01-13T08:40:19.671Z,91.34
2018-01-13T08:42:47.046Z,91.05
2018-01-13T08:45:14.478Z,91.03
2018-01-13T08:47:41.898Z,91.10
2018-01-13T08:50:09.295Z,90.75
2018-01-13T08:52:36.699Z,91.05
2018-01-13T08:55:04.139Z,90.76
2018-01-13T08:57:31.532Z,90.92
2018-01-13T08:59:58.927Z,90.95
2018-01-13T09:02:26.332Z,90.95
2018-01-13T09:04:53.742Z,90.61
2018-01-13T09:07:21.147Z,90.75
2018-01-13T09:09:48.533Z,90.71
2018-01-13T09:12:15.991Z,90.67
2018-01-13T09:14:43.377Z,90.78
2018-01-13T09:17:10.782Z,90.50
2018-01-13T09:19:38.175Z,90.72
2018-01-13T09:22:05.579Z,90.72
2018-01-13T09:24:32.975Z,90.87
2018-01-13T09:27:00.382Z,90.74
2018-01-13T09:29:27.777Z,90.95
2018-01-13T09:31:55.185Z,90.99
2018-01-13T09:34:22.575Z,90.80
2018-01-13T09:36:50.006Z,90.84
2018-01-13T09:39:17.406Z,91.05
2018-01-13T09:41:44.806Z,91.34
2018-01-13T09:44:12.202Z,91.65
2018-01-13T09:46:39.630Z,91.87
2018-01-13T09:49:07.059Z,92.23
2018-01-13T09:51:34.454Z,92.15
2018-01-13T09:54:01.861Z,91.81
2018-01-13T09:56:29.254Z,91.64
2018-01-13T09:58:56.662Z,91.33
2018-01-13T10:01:24.067Z,91.09
2018-01-13T10:03:51.498Z,91.11
2018-01-13T10:06:18.893Z,90.93
2018-01-13T10:08:46.294Z,91.01
2018-01-13T10:11:13.694Z,91.01
2018-01-13T10:13:41.094Z,90.77
2018-01-13T10:16:08.562Z,90.74
2018-01-13T10:18:35.966Z,90.78
2018-01-13T10:21:03.378Z,90.92
2018-01-13T10:23:31.603Z,90.79
2018-01-13T10:25:59.030Z,90.83
2018-01-13T10:28:26.451Z,91.08
2018-01-13T10:30:53.853Z,91.08
2018-01-13T10:33:21.251Z,91.32
2018-01-13T10:35:48.663Z,91.40
2018-01-13T10:38:16.093Z,90.98
2018-01-13T10:40:43.478Z,90.97
2018-01-13T10:43:10.899Z,90.68
2018-01-13T10:45:38.323Z,90.13
2018-01-13T10:48:05.723Z,89.71
2018-01-13T10:50:33.132Z,89.67
2018-01-13T10:53:00.514Z,90.10
2018-01-13T10:55:27.930Z,90.28
2018-01-13T10:57:55.383Z,90.17
2018-01-13T11:00:22.792Z,89.96
2018-01-13T11:02:50.183Z,90.15
2018-01-13T11:05:17.595Z,90.28
2018-01-13T11:07:45.131Z,89.56
2018-01-13T11:10:12.584Z,89.06
2018-01-13T11:12:39.945Z,89.46
2018-01-13T11:15:07.342Z,89.39
2018-01-13T11:17:34.754Z,89.71
2018-01-13T11:20:02.146Z,89.98
2018-01-13T11:22:29.550Z,90.21
2018-01-13T11:24:56.970Z,90.34
2018-01-13T11:27:24.409Z,90.39
2018-01-13T11:29:51.804Z,90.36
2018-01-13T11:32:19.212Z,90.41
2018-01-13T11:34:46.618Z,90.69
2018-01-13T11:37:14.030Z,90.84
2018-01-13T11:39:41.425Z,90.65
2018-01-13T11:42:08.817Z,90.10
2018-01-13T11:44:36.234Z,89.79
2018-01-13T11:47:03.629Z,89.51
2018-01-13T11:49:31.023Z,89.82
2018-01-13T11:51:58.430Z,90.26
2018-01-13T11:54:25.848Z,90.43
2018-01-13T11:56:53.240Z,90.22
2018-01-13T11:59:20.654Z,89.98
2018-01-13T12:01:48.076Z,90.02
2018-01-13T12:04:15.466Z,90.58
2018-01-13T12:06:42.870Z,90.69
2018-01-13T12:09:10.267Z,90.29
2018-01-13T12:11:37.669Z,89.96
2018-01-13T12:14:05.090Z,90.01
2018-01-13T12:16:32.508Z,90.08
2018-01-13T12:18:59.927Z,89.89
2018-01-13T12:21:27.330Z,89.64
2018-01-13T12:23:54.726Z,89.46
2018-01-13T12:26:22.130Z,89.70
2018-01-13T12:28:49.535Z,89.71
2018-01-13T12:31:16.935Z,89.64
2018-01-13T12:33:44.334Z,89.88
2018-01-13T12:36:11.759Z,89.57
2018-01-13T12:38:39.194Z,90.17
2018-01-13T12:41:06.602Z,90.37
2018-01-13T12:43:34.025Z,89.87
2018-01-13T12:46:01.554Z,89.44
2018-01-13T12:48:28.942Z,89.60
2018-01-13T12:50:56.346Z,89.21
2018-01-13T12:53:23.760Z,89.38
2018-01-13T12:55:51.167Z,89.99
2018-01-13T12:58:18.582Z,90.03
2018-01-13T13:00:46.134Z,90.12
2018-01-13T13:03:13.544Z,90.03
2018-01-13T13:05:40.983Z,89.73
2018-01-13T13:08:08.383Z,89.61
2018-01-13T13:10:35.782Z,89.61
2018-01-13T13:13:03.191Z,89.87
2018-01-13T13:15:30.593Z,89.58
2018-01-13T13:17:58.000Z,89.46
2018-01-13T13:20:25.401Z,89.94
2018-01-13T13:22:52.815Z,90.33
2018-01-13T13:25:20.223Z,90.95
2018-01-13T13:27:47.634Z,90.96
2018-01-13T13:30:15.043Z,90.46
2018-01-13T13:32:42.493Z,89.88
2018-01-13T13:35:09.898Z,89.71
2018-01-13T13:37:37.296Z,89.66
2018-01-13T13:40:04.995Z,89.59
2018-01-13T13:42:32.395Z,89.61
2018-01-13T13:44:59.791Z,90.23
2018-01-13T13:47:27.211Z,90.59
2018-01-13T13:49:54.690Z,90.44
2018-01-13T13:52:22.082Z,90.06
2018-01-13T13:54:49.503Z,89.78
2018-01-13T13:57:16.914Z,89.64
2018-01-13T13:59:50.347Z,89.64
2018-01-13T14:02:11.727Z,90.07
2018-01-13T14:04:39.131Z,89.83
2018-01-13T14:07:06.539Z,89.78
2018-01-13T14:09:33.938Z,89.65
2018-01-13T14:12:01.423Z,89.58
2018-01-13T14:14:28.831Z,89.59
2018-01-13T14:16:56.230Z,89.40
2018-01-13T14:19:23.622Z,89.24
2018-01-13T14:21:51.030Z,89.14
2018-01-13T14:24:18.447Z,89.45
2018-01-13T14:26:45.995Z,89.64
2018-01-13T14:29:13.398Z,89.52
2018-01-13T14:31:40.808Z,89.30
2018-01-13T14:34:08.206Z,88.38
2018-01-13T14:36:35.698Z,88.57
2018-01-13T14:39:03.095Z,89.03
2018-01-13T14:41:30.506Z,89.31
2018-01-13T14:43:57.908Z,89.12
2018-01-13T14:46:25.298Z,88.94
2018-01-13T14:48:52.705Z,89.20
2018-01-13T14:51:20.135Z,88.84
2018-01-13T14:53:47.522Z,89.02
2018-01-13T14:56:14.934Z,89.02
2018-01-13T14:58:42.338Z,88.99
2018-01-13T15:01:09.741Z,88.96
2018-01-13T15:03:37.154Z,88.61
2018-01-13T15:06:04.557Z,88.37
2018-01-13T15:08:31.970Z,88.55
2018-01-13T15:10:59.359Z,88.00
2018-01-13T15:13:26.762Z,88.23
2018-01-13T15:15:54.161Z,88.27
2018-01-13T15:18:21.577Z,88.57
2018-01-13T15:20:48.958Z,88.35
2018-01-13T15:23:16.362Z,88.66
2018-01-13T15:25:43.870Z,88.96
2018-01-13T15:28:11.280Z,89.10
2018-01-13T15:30:38.698Z,88.78
2018-01-13T15:33:06.106Z,88.79
2018-01-13T15:35:33.516Z,88.60
2018-01-13T15:38:00.931Z,88.81
2018-01-13T15:40:28.338Z,89.27
2018-01-13T15:42:55.743Z,89.00
2018-01-13T15:45:23.144Z,88.80
2018-01-13T15:47:50.557Z,88.61
2018-01-13T15:50:17.935Z,88.69
2018-01-13T15:52:45.347Z,88.57
2018-01-13T15:55:12.759Z,87.96
2018-01-13T15:57:40.167Z,87.84
2018-01-13T16:00:07.562Z,87.59
2018-01-13T16:02:34.995Z,87.12
2018-01-13T16:05:02.386Z,86.98
2018-01-13T16:07:30.307Z,86.38
2018-01-13T16:09:57.698Z,86.04
2018-01-13T16:12:25.094Z,86.14
2018-01-13T16:14:52.494Z,86.09
2018-01-13T16:17:19.950Z,85.84
2018-01-13T16:19:47.334Z,85.75
2018-01-13T16:22:14.733Z,85.95
2018-01-13T16:24:42.118Z,85.71
2018-01-13T16:27:09.562Z,85.66
2018-01-13T16:29:36.959Z,84.83
2018-01-13T16:32:04.376Z,84.77
2018-01-13T16:34:31.766Z,85.09
2018-01-13T16:36:59.279Z,84.77
2018-01-13T16:39:26.687Z,84.75
2018-01-13T16:41:54.102Z,84.68
2018-01-13T16:44:21.497Z,83.77
2018-01-13T16:46:48.914Z,83.55
2018-01-13T16:49:16.311Z,83.83
2018-01-13T16:51:43.699Z,83.86
2018-01-13T16:54:11.098Z,83.74
2018-01-13T16:56:38.537Z,83.63
2018-01-13T16:59:05.903Z,84.00
2018-01-13T17:01:33.294Z,83.97
2018-01-13T17:04:00.695Z,83.84
2018-01-13T17:06:28.095Z,83.93
2018-01-13T17:08:55.527Z,83.84
2018-01-13T17:11:22.918Z,83.26
2018-01-13T17:13:51.086Z,83.18
2018-01-13T17:16:18.608Z,82.97
2018-01-13T17:18:46.009Z,82.73
2018-01-13T17:21:13.399Z,82.38
2018-01-13T17:23:40.795Z,82.03
2018-01-13T17:26:08.190Z,82.13
2018-01-13T17:28:35.679Z,81.60
2018-01-13T17:31:03.068Z,82.00
2018-01-13T17:33:30.469Z,81.53
2018-01-13T17:35:57.861Z,81.77
2018-01-13T17:38:25.266Z,81.26
2018-01-13T17:40:52.666Z,81.99
2018-01-13T17:43:20.074Z,81.57
2018-01-13T17:45:47.470Z,81.88
2018-01-13T17:48:14.955Z,81.84
2018-01-13T17:50:42.346Z,81.97
2018-01-13T17:53:09.755Z,81.44
2018-01-13T17:55:37.141Z,81.78
2018-01-13T17:58:04.538Z,81.69
2018-01-13T18:00:31.925Z,81.90
2018-01-13T18:03:00.149Z,82.08
2018-01-13T18:05:27.655Z,81.90
2018-01-13T18:07:55.050Z,82.10
2018-01-13T18:10:22.446Z,81.61
2018-01-13T18:12:49.876Z,81.71
2018-01-13T18:15:17.385Z,81.72
2018-01-13T18:17:44.778Z,81.11
2018-01-13T18:20:12.178Z,81.45
2018-01-13T18:22:39.583Z,81.19
2018-01-13T18:25:07.059Z,80.93
2018-01-13T18:27:34.447Z,80.69
2018-01-13T18:30:01.858Z,79.89
2018-01-13T18:32:29.291Z,80.11
2018-01-13T18:34:56.679Z,79.67
2018-01-13T18:37:24.088Z,78.91
2018-01-13T18:39:51.507Z,78.63
2018-01-13T18:42:18.903Z,77.92
2018-01-13T18:47:13.019Z,78.18
2018-01-13T18:49:40.425Z,78.09
2018-01-13T18:52:07.822Z,78.23
2018-01-13T18:54:35.249Z,77.69
2018-01-13T18:57:02.650Z,77.17
2018-01-13T18:59:30.047Z,77.36
2018-01-13T19:01:57.443Z,77.30
2018-01-13T19:04:24.843Z,77.84
2018-01-13T19:06:52.246Z,77.48
2018-01-13T19:09:19.703Z,76.97
2018-01-13T19:11:47.097Z,76.79
2018-01-13T19:14:14.503Z,77.13
2018-01-13T19:16:41.898Z,76.46
2018-01-13T19:19:09.305Z,76.08
2018-01-13T19:21:36.698Z,76.40
2018-01-13T19:24:04.106Z,76.58
2018-01-13T19:26:31.493Z,76.68
2018-01-13T19:28:58.925Z,76.04
2018-01-13T19:31:26.329Z,75.88
2018-01-13T19:33:53.741Z,76.37
2018-01-13T19:36:21.130Z,76.01
2018-01-13T19:38:48.526Z,76.18
2018-01-13T19:41:15.950Z,75.80
2018-01-13T19:43:43.364Z,76.29
2018-01-13T19:46:10.770Z,76.06
2018-01-13T19:48:38.177Z,75.88
2018-01-13T19:51:05.580Z,75.99
2018-01-13T19:53:32.979Z,75.58
2018-01-13T19:56:00.383Z,75.50
2018-01-13T19:58:27.787Z,75.28
2018-01-13T20:00:55.178Z,75.21
2018-01-13T20:03:22.619Z,75.66
2018-01-13T20:05:50.015Z,75.37
2018-01-13T20:08:17.414Z,75.66
2018-01-13T20:10:44.811Z,75.14
2018-01-13T20:13:12.218Z,75.16
2018-01-13T20:15:39.619Z,75.35
2018-01-13T20:18:07.015Z,75.57
2018-01-13T20:20:34.422Z,75.75
2018-01-13T20:23:01.834Z,75.58
2018-01-13T20:25:29.231Z,75.45
2018-01-13T20:27:56.703Z,76.01
2018-01-13T20:30:24.095Z,75.70
2018-01-13T20:32:51.484Z,75.69
2018-01-13T20:35:18.886Z,76.06
2018-01-13T20:37:46.301Z,76.18
2018-01-13T20:40:13.702Z,76.31
2018-01-13T20:42:41.107Z,75.95
2018-01-13T20:45:08.506Z,75.83
2018-01-13T20:47:35.910Z,75.80
2018-01-13T20:50:03.344Z,75.89
2018-01-13T20:52:30.738Z,76.00
2018-01-13T20:54:58.227Z,75.71
2018-01-13T20:57:25.620Z,76.09
2018-01-13T20:59:53.067Z,76.32
2018-01-13T21:02:20.458Z,75.93
2018-01-13T21:04:47.858Z,76.16
2018-01-13T21:07:15.272Z,75.95
2018-01-13T21:09:42.681Z,76.16
2018-01-13T21:12:10.062Z,76.36
2018-01-13T21:14:37.469Z,76.21
2018-01-13T21:17:04.866Z,76.77
2018-01-13T21:19:32.274Z,76.74
2018-01-13T21:21:59.678Z,76.99
2018-01-13T21:24:27.082Z,76.29
2018-01-13T21:26:54.478Z,76.77
2018-01-13T21:29:21.898Z,76.80
2018-01-13T21:31:49.298Z,76.35
2018-01-13T21:34:16.694Z,76.45
2018-01-13T21:36:44.092Z,76.34
2018-01-13T21:39:11.490Z,76.43
2018-01-13T21:41:38.899Z,76.58
2018-01-13T21:44:06.318Z,76.59
2018-01-13T21:46:33.703Z,76.71
2018-01-13T21:49:01.103Z,76.42
2018-01-13T21:51:28.508Z,75.99
2018-01-13T21:53:55.927Z,76.28
2018-01-13T21:56:23.308Z,76.25
2018-01-13T21:58:50.740Z,76.06
2018-01-13T22:01:18.157Z,75.89
2018-01-13T22:03:45.592Z,75.83
2018-01-13T22:06:12.980Z,75.92
2018-01-13T22:08:40.374Z,76.18
2018-01-13T22:11:07.768Z,75.95
2018-01-13T22:13:35.186Z,75.20
2018-01-13T22:16:02.574Z,75.51
2018-01-13T22:18:29.995Z,75.11
2018-01-13T22:20:57.451Z,75.49
2018-01-13T22:23:24.842Z,75.52
2018-01-13T22:25:52.280Z,75.32
2018-01-13T22:28:19.715Z,75.86
2018-01-13T22:30:47.190Z,76.02
2018-01-13T22:33:14.619Z,75.89
2018-01-13T22:35:42.024Z,75.76
2018-01-13T22:38:09.427Z,75.98
2018-01-13T22:40:36.850Z,75.61
2018-01-13T22:43:04.311Z,75.82
2018-01-13T22:45:31.720Z,75.45
2018-01-13T22:47:59.114Z,75.53
2018-01-13T22:50:26.554Z,75.79
2018-01-13T22:52:53.974Z,75.46
2018-01-13T22:55:21.374Z,75.78
2018-01-13T22:57:48.808Z,75.31
2018-01-13T23:00:16.212Z,75.34
2018-01-13T23:02:43.635Z,74.87
2018-01-13T23:05:11.199Z,74.98
2018-01-13T23:07:38.590Z,75.32
2018-01-13T23:10:06.004Z,75.10
2018-01-13T23:12:33.398Z,74.92
2018-01-13T23:15:00.803Z,75.51
2018-01-13T23:17:28.211Z,75.14
2018-01-13T23:19:55.718Z,75.02
2018-01-13T23:22:23.118Z,75.05
2018-01-13T23:24:50.566Z,75.01
2018-01-13T23:27:21.907Z,74.87
2018-01-13T23:29:49.306Z,75.24
2018-01-13T23:32:16.695Z,74.78
2018-01-13T23:34:44.146Z,74.81
2018-01-13T23:37:11.538Z,75.04
2018-01-13T23:39:38.991Z,74.91
2018-01-13T23:42:06.395Z,74.88
2018-01-13T23:44:33.794Z,74.97
2018-01-13T23:47:01.199Z,75.11
2018-01-13T23:49:28.594Z,75.42
2018-01-13T23:51:55.990Z,74.83
2018-01-13T23:54:23.389Z,74.77
2018-01-13T23:56:50.807Z,75.23
2018-01-13T23:59:18.214Z,75.01
